createdAt,value
2023-03-06T00:00:13.072Z,3.20
2023-03-06T00:02:39.829Z,3.20
2023-03-06T00:05:06.715Z,3.10
2023-03-06T00:07:33.591Z,3.10
2023-03-06T00:10:00.270Z,3.10
2023-03-06T00:12:27.607Z,3.00
2023-03-06T00:14:54.318Z,3.00
2023-03-06T00:17:21.091Z,3.00
2023-03-06T00:19:47.823Z,3.00
2023-03-06T00:22:15.119Z,3.00
2023-03-06T00:24:42.281Z,3.00
2023-03-06T00:27:13.522Z,3.00
2023-03-06T00:29:40.272Z,3.00
2023-03-06T00:32:07.291Z,3.00
2023-03-06T00:34:36.475Z,3.00
2023-03-06T00:37:03.220Z,2.90
2023-03-06T00:39:32.674Z,2.90
2023-03-06T00:46:00.633Z,2.90
2023-03-06T00:48:27.908Z,2.90
2023-03-06T00:50:54.656Z,2.90
2023-03-06T00:53:21.478Z,2.80
2023-03-06T00:55:49.814Z,2.80
2023-03-06T00:58:16.753Z,2.80
2023-03-06T01:00:43.842Z,2.80
2023-03-06T01:03:10.673Z,2.80
2023-03-06T01:05:37.892Z,2.80
2023-03-06T01:08:06.346Z,2.90
2023-03-06T01:10:33.588Z,2.80
2023-03-06T01:13:00.284Z,2.80
2023-03-06T01:15:26.968Z,2.90
2023-03-06T01:17:58.333Z,2.80
2023-03-06T01:20:25.289Z,2.80
2023-03-06T01:22:52.051Z,2.90
2023-03-06T01:25:21.220Z,2.90
2023-03-06T01:27:50.819Z,2.90
2023-03-06T01:30:17.574Z,2.90
2023-03-06T01:32:48.890Z,2.90
2023-03-06T01:35:15.742Z,3.00
2023-03-06T01:37:42.550Z,2.90
2023-03-06T01:40:10.405Z,2.90
2023-03-06T01:42:37.184Z,2.90
2023-03-06T01:45:09.507Z,3.00
2023-03-06T01:47:36.731Z,2.90
2023-03-06T01:50:07.028Z,3.00
2023-03-06T01:52:36.435Z,3.00
2023-03-06T01:55:08.449Z,3.00
2023-03-06T01:57:39.557Z,3.00
2023-03-06T02:00:11.137Z,2.90
2023-03-06T02:02:47.419Z,2.90
2023-03-06T02:05:14.290Z,2.90
2023-03-06T02:07:42.274Z,2.90
2023-03-06T02:10:09.459Z,2.90
2023-03-06T02:12:37.542Z,2.90
2023-03-06T02:15:04.787Z,2.90
2023-03-06T02:17:33.218Z,2.90
2023-03-06T02:20:29.013Z,2.90
2023-03-06T02:23:01.741Z,2.90
2023-03-06T02:25:37.691Z,2.90
2023-03-06T02:28:06.306Z,2.90
2023-03-06T02:30:33.283Z,2.90
2023-03-06T02:33:01.329Z,2.90
2023-03-06T02:35:32.716Z,2.90
2023-03-06T02:38:02.573Z,2.90
2023-03-06T02:40:29.672Z,2.90
2023-03-06T02:42:57.400Z,2.90
2023-03-06T02:45:33.320Z,2.90
2023-03-06T02:48:00.041Z,2.90
2023-03-06T02:50:29.677Z,3.00
2023-03-06T02:52:56.568Z,2.90
2023-03-06T02:55:25.511Z,3.00
2023-03-06T02:57:56.844Z,3.00
2023-03-06T03:00:24.399Z,3.00
2023-03-06T03:02:57.020Z,3.00
2023-03-06T03:05:24.114Z,3.00
2023-03-06T03:07:57.645Z,3.00
2023-03-06T03:10:24.934Z,3.00
2023-03-06T03:12:51.765Z,3.00
2023-03-06T03:15:22.422Z,3.00
2023-03-06T03:17:51.663Z,3.10
2023-03-06T03:20:19.503Z,3.10
2023-03-06T03:22:52.799Z,3.10
2023-03-06T03:25:22.581Z,3.10
2023-03-06T03:27:50.902Z,3.10
2023-03-06T03:30:17.739Z,3.20
2023-03-06T03:32:47.256Z,3.20
2023-03-06T03:35:16.974Z,3.20
2023-03-06T03:37:43.823Z,3.20
2023-03-06T03:40:11.320Z,3.20
2023-03-06T03:42:38.092Z,3.20
2023-03-06T03:45:06.344Z,3.20
2023-03-06T03:47:35.648Z,3.30
2023-03-06T03:50:05.995Z,3.30
2023-03-06T03:52:33.194Z,3.30
2023-03-06T03:55:00.055Z,3.30
2023-03-06T03:57:28.075Z,3.30
2023-03-06T04:00:00.257Z,3.40
2023-03-06T04:02:40.321Z,3.30
2023-03-06T04:05:20.900Z,3.40
2023-03-06T04:07:51.015Z,3.40
2023-03-06T04:10:21.733Z,3.40
2023-03-06T04:12:52.033Z,3.40
2023-03-06T04:15:18.980Z,3.40
2023-03-06T04:17:47.046Z,3.40
2023-03-06T04:20:17.890Z,3.40
2023-03-06T04:22:48.972Z,3.40
2023-03-06T04:25:17.090Z,3.40
2023-03-06T04:27:49.527Z,3.40
2023-03-06T04:30:16.582Z,3.40
2023-03-06T04:32:43.470Z,3.40
2023-03-06T04:35:12.823Z,3.30
2023-03-06T04:37:52.117Z,3.30
2023-03-06T04:40:24.949Z,3.30
2023-03-06T04:42:51.803Z,3.30
2023-03-06T04:45:18.560Z,3.30
2023-03-06T04:47:47.729Z,3.20
2023-03-06T04:50:15.136Z,3.20
2023-03-06T04:52:41.822Z,3.20
2023-03-06T04:55:09.493Z,3.20
2023-03-06T04:57:36.540Z,3.20
2023-03-06T05:00:04.707Z,3.20
2023-03-06T05:02:36.348Z,3.20
2023-03-06T05:05:03.935Z,3.20
2023-03-06T05:07:30.777Z,3.20
2023-03-06T05:09:57.555Z,3.20
2023-03-06T05:12:24.262Z,3.20
2023-03-06T05:14:51.053Z,3.10
2023-03-06T05:17:17.785Z,3.10
2023-03-06T05:19:44.509Z,3.10
2023-03-06T05:22:13.724Z,3.10
2023-03-06T05:24:42.832Z,3.10
2023-03-06T05:27:11.804Z,3.00
2023-03-06T05:29:38.618Z,3.00
2023-03-06T05:32:05.565Z,3.00
2023-03-06T05:34:34.760Z,3.00
2023-03-06T05:37:04.013Z,3.00
2023-03-06T05:39:30.717Z,3.00
2023-03-06T05:41:57.511Z,2.90
2023-03-06T05:44:24.341Z,2.90
2023-03-06T05:46:51.079Z,2.90
2023-03-06T05:49:20.121Z,2.90
2023-03-06T05:51:50.986Z,2.90
2023-03-06T05:54:17.808Z,2.90
2023-03-06T05:56:44.564Z,2.90
2023-03-06T05:59:13.936Z,2.90
2023-03-06T06:01:40.747Z,2.90
2023-03-06T06:04:07.655Z,2.90
2023-03-06T06:06:34.319Z,2.90
2023-03-06T06:09:01.032Z,2.90
2023-03-06T06:11:27.725Z,2.90
2023-03-06T06:13:56.517Z,2.90
2023-03-06T06:16:25.364Z,2.90
2023-03-06T06:18:52.096Z,2.90
2023-03-06T06:21:18.775Z,2.90
2023-03-06T06:23:46.152Z,2.90
2023-03-06T06:26:12.898Z,2.90
2023-03-06T06:28:39.647Z,2.90
2023-03-06T06:31:10.454Z,2.90
2023-03-06T06:33:40.208Z,2.90
2023-03-06T06:36:15.009Z,2.90
2023-03-06T06:38:41.773Z,2.80
2023-03-06T06:43:57.596Z,2.80
2023-03-06T06:47:10.777Z,2.90
2023-03-06T06:49:13.134Z,2.90
2023-03-06T06:51:40.969Z,2.90
2023-03-06T06:54:08.224Z,2.90
2023-03-06T06:56:35.336Z,2.90
2023-03-06T06:59:15.778Z,2.90
2023-03-06T07:01:43.117Z,2.90
2023-03-06T07:04:11.935Z,2.90
2023-03-06T07:06:41.294Z,2.90
2023-03-06T07:09:13.189Z,3.00
2023-03-06T07:11:42.411Z,3.00
2023-03-06T07:14:09.153Z,3.00
2023-03-06T07:16:35.890Z,3.00
2023-03-06T07:19:28.366Z,3.00
2023-03-06T07:21:55.352Z,3.00
2023-03-06T07:24:24.548Z,3.10
2023-03-06T07:26:51.411Z,3.10
2023-03-06T07:29:20.853Z,3.10
2023-03-06T07:31:47.618Z,3.10
2023-03-06T07:34:14.859Z,3.10
2023-03-06T07:36:41.836Z,3.20
2023-03-06T07:39:13.478Z,3.20
2023-03-06T07:41:47.356Z,3.30
2023-03-06T07:44:14.191Z,3.30
2023-03-06T07:46:41.207Z,3.20
2023-03-06T07:49:11.497Z,3.30
2023-03-06T07:51:43.100Z,3.30
2023-03-06T07:54:09.923Z,3.30
2023-03-06T07:56:36.674Z,3.30
2023-03-06T07:59:06.277Z,3.30
2023-03-06T08:01:33.156Z,3.40
2023-03-06T08:04:02.275Z,3.30
2023-03-06T08:06:29.112Z,3.30
2023-03-06T08:08:56.457Z,3.30
2023-03-06T08:11:24.660Z,3.30
2023-03-06T08:13:52.981Z,3.30
2023-03-06T08:16:20.741Z,3.40
2023-03-06T08:18:50.205Z,3.40
2023-03-06T08:21:21.406Z,3.40
2023-03-06T08:23:52.765Z,3.30
2023-03-06T08:26:21.090Z,3.30
2023-03-06T08:28:47.941Z,3.20
2023-03-06T08:31:25.844Z,3.20
2023-03-06T08:33:53.330Z,3.20
2023-03-06T08:36:20.162Z,3.20
2023-03-06T08:38:47.097Z,3.20
2023-03-06T08:41:13.898Z,3.20
2023-03-06T08:43:40.912Z,3.20
2023-03-06T08:46:07.950Z,3.20
2023-03-06T08:48:37.627Z,3.20
2023-03-06T08:51:13.487Z,3.20
2023-03-06T08:53:43.617Z,3.20
2023-03-06T08:56:23.730Z,3.20
2023-03-06T08:58:51.005Z,3.10
2023-03-06T09:01:21.513Z,3.10
2023-03-06T09:03:48.783Z,3.10
2023-03-06T09:06:17.691Z,3.00
2023-03-06T09:08:46.525Z,3.00
2023-03-06T09:11:15.712Z,3.00
2023-03-06T09:13:44.490Z,3.00
2023-03-06T09:16:11.964Z,3.00
2023-03-06T09:18:39.335Z,3.00
2023-03-06T09:21:06.680Z,3.00
2023-03-06T09:23:33.872Z,2.90
2023-03-06T09:26:03.710Z,3.00
2023-03-06T09:28:30.471Z,3.00
2023-03-06T09:30:57.201Z,3.00
2023-03-06T09:33:24.035Z,3.00
2023-03-06T09:35:54.727Z,3.00
2023-03-06T09:38:22.624Z,3.00
2023-03-06T09:40:55.660Z,3.00
2023-03-06T09:43:42.357Z,3.00
2023-03-06T09:46:32.406Z,3.00
2023-03-06T09:49:02.257Z,3.00
2023-03-06T09:51:41.945Z,3.00
2023-03-06T09:54:14.982Z,3.00
2023-03-06T09:56:51.189Z,3.10
2023-03-06T09:59:22.906Z,3.10
2023-03-06T10:02:08.625Z,3.10
2023-03-06T10:04:46.234Z,3.10
2023-03-06T10:07:21.539Z,3.10
2023-03-06T10:09:51.998Z,3.10
2023-03-06T10:12:25.157Z,3.10
2023-03-06T10:15:30.418Z,3.20
2023-03-06T10:17:57.543Z,3.20
2023-03-06T10:20:33.669Z,3.30
2023-03-06T10:23:09.991Z,3.30
2023-03-06T10:25:49.265Z,3.30
2023-03-06T10:28:17.454Z,3.30
2023-03-06T10:31:00.477Z,3.30
2023-03-06T10:33:42.376Z,3.30
2023-03-06T10:36:14.984Z,3.30
2023-03-06T10:38:42.621Z,3.30
2023-03-06T10:41:12.393Z,3.30
2023-03-06T10:43:45.615Z,3.30
2023-03-06T10:46:14.658Z,3.30
2023-03-06T10:48:45.144Z,3.30
2023-03-06T10:51:19.515Z,3.40
2023-03-06T10:53:55.630Z,3.30
2023-03-06T10:56:41.756Z,3.40
2023-03-06T10:59:08.565Z,3.40
2023-03-06T11:01:49.445Z,3.40
2023-03-06T11:04:25.247Z,3.50
2023-03-06T11:07:14.468Z,3.50
2023-03-06T11:10:05.200Z,3.50
2023-03-06T11:12:41.207Z,3.50
2023-03-06T11:15:14.123Z,3.50
2023-03-06T11:17:59.754Z,3.50
2023-03-06T11:20:51.400Z,3.50
2023-03-06T11:23:31.292Z,3.50
2023-03-06T11:26:15.843Z,3.50
2023-03-06T11:28:53.938Z,3.50
2023-03-06T11:31:22.873Z,3.60
2023-03-06T11:34:01.319Z,3.60
2023-03-06T11:36:33.613Z,3.60
2023-03-06T11:39:04.432Z,3.60
2023-03-06T11:41:54.121Z,3.70
2023-03-06T11:44:25.808Z,3.70
2023-03-06T11:47:15.464Z,3.80
2023-03-06T11:49:46.668Z,3.80
2023-03-06T11:52:19.749Z,3.80
2023-03-06T11:54:49.630Z,3.80
2023-03-06T11:57:20.334Z,3.80
2023-03-06T12:00:02.519Z,3.90
2023-03-06T12:02:42.953Z,3.90
2023-03-06T12:05:34.326Z,4.00
2023-03-06T12:08:22.698Z,4.10
2023-03-06T12:10:59.883Z,4.20
2023-03-06T12:13:32.567Z,4.20
2023-03-06T12:16:24.407Z,4.30
2023-03-06T12:19:12.628Z,4.30
2023-03-06T12:21:56.349Z,4.40
2023-03-06T12:24:44.700Z,4.30
2023-03-06T12:27:42.661Z,4.30
2023-03-06T12:30:33.711Z,4.40
2023-03-06T12:33:24.308Z,4.50
2023-03-06T12:40:38.089Z,4.60
2023-03-06T12:43:27.282Z,4.70
2023-03-06T12:46:40.180Z,4.80
2023-03-06T12:49:31.556Z,4.90
2023-03-06T12:52:00.983Z,5.10
2023-03-06T12:54:31.077Z,5.10
2023-03-06T12:57:00.545Z,5.20
2023-03-06T12:59:48.029Z,5.20
2023-03-06T13:02:29.331Z,5.20
2023-03-06T13:05:17.458Z,5.30
2023-03-06T13:07:50.866Z,5.20
2023-03-06T13:10:34.039Z,5.20
2023-03-06T13:13:02.583Z,5.20
2023-03-06T13:15:37.685Z,5.20
2023-03-06T13:18:25.253Z,5.20
2023-03-06T13:20:53.783Z,5.20
2023-03-06T13:23:29.751Z,5.20
2023-03-06T13:25:59.654Z,5.30
2023-03-06T13:28:49.895Z,5.30
2023-03-06T13:31:28.344Z,5.40
2023-03-06T13:34:01.319Z,5.40
2023-03-06T13:36:31.999Z,5.50
2023-03-06T13:38:58.863Z,5.50
2023-03-06T13:41:34.100Z,5.50
2023-03-06T13:44:04.882Z,5.50
2023-03-06T13:46:37.487Z,5.50
2023-03-06T13:49:14.645Z,5.50
2023-03-06T13:52:10.482Z,5.40
2023-03-06T13:54:46.272Z,5.40
2023-03-06T13:57:18.899Z,5.40
2023-03-06T14:00:14.458Z,5.40
2023-03-06T14:03:00.260Z,5.50
2023-03-06T14:05:44.218Z,5.50
2023-03-06T14:08:20.225Z,5.50
2023-03-06T14:10:58.139Z,5.60
2023-03-06T14:13:32.294Z,5.60
2023-03-06T14:16:18.226Z,5.70
2023-03-06T14:18:48.660Z,5.80
2023-03-06T14:21:30.876Z,5.80
2023-03-06T14:24:04.977Z,5.80
2023-03-06T14:26:51.556Z,5.80
2023-03-06T14:29:22.486Z,5.80
2023-03-06T14:31:52.300Z,5.70
2023-03-06T14:34:37.078Z,5.60
2023-03-06T14:37:07.697Z,5.50
2023-03-06T14:39:42.770Z,5.50
2023-03-06T14:42:25.782Z,5.50
2023-03-06T14:45:18.689Z,5.50
2023-03-06T14:47:52.946Z,5.40
2023-03-06T14:50:24.895Z,5.50
2023-03-06T14:53:05.356Z,5.40
2023-03-06T14:55:35.504Z,5.40
2023-03-06T14:58:12.249Z,5.40
2023-03-06T15:00:43.278Z,5.40
2023-03-06T15:03:27.811Z,5.30
2023-03-06T15:05:55.606Z,5.30
2023-03-06T15:08:30.006Z,5.30
2023-03-06T15:11:02.775Z,5.20
2023-03-06T15:13:31.829Z,5.10
2023-03-06T15:16:00.315Z,5.10
2023-03-06T15:18:38.813Z,5.10
2023-03-06T15:21:13.409Z,5.00
2023-03-06T15:23:50.547Z,5.00
2023-03-06T15:26:37.901Z,4.90
2023-03-06T15:29:11.103Z,4.90
2023-03-06T15:31:43.163Z,4.80
2023-03-06T15:34:10.114Z,4.70
2023-03-06T15:36:40.260Z,4.70
2023-03-06T15:39:28.451Z,4.60
2023-03-06T15:42:18.058Z,4.60
2023-03-06T15:44:49.421Z,4.60
2023-03-06T15:47:16.611Z,4.50
2023-03-06T15:49:43.673Z,4.50
2023-03-06T15:52:10.788Z,4.50
2023-03-06T15:54:40.472Z,4.40
2023-03-06T15:57:21.974Z,4.40
2023-03-06T15:59:49.370Z,4.30
2023-03-06T16:02:21.868Z,4.30
2023-03-06T16:04:51.352Z,4.20
2023-03-06T16:07:20.867Z,4.20
2023-03-06T16:09:48.256Z,4.20
2023-03-06T16:12:17.286Z,4.20
2023-03-06T16:14:45.241Z,4.10
2023-03-06T16:17:12.871Z,4.10
2023-03-06T16:19:40.261Z,4.10
2023-03-06T16:22:09.800Z,4.10
2023-03-06T16:24:44.420Z,4.10
2023-03-06T16:27:18.618Z,4.00
2023-03-06T16:29:47.865Z,4.00
2023-03-06T16:32:14.966Z,4.00
2023-03-06T16:34:44.391Z,3.90
2023-03-06T16:37:16.153Z,3.90
2023-03-06T16:39:43.184Z,3.90
2023-03-06T16:42:12.647Z,3.80
2023-03-06T16:44:39.556Z,3.80
2023-03-06T16:47:11.698Z,3.80
2023-03-06T16:49:43.360Z,3.70
2023-03-06T16:52:14.597Z,3.70
2023-03-06T16:54:44.664Z,3.60
2023-03-06T16:57:14.422Z,3.50
2023-03-06T16:59:41.584Z,3.50
2023-03-06T17:02:10.475Z,3.50
2023-03-06T17:04:37.793Z,3.50
2023-03-06T17:07:04.949Z,3.40
2023-03-06T17:09:31.949Z,3.40
2023-03-06T17:11:58.992Z,3.30
2023-03-06T17:14:26.135Z,3.30
2023-03-06T17:16:53.866Z,3.30
2023-03-06T17:19:20.861Z,3.30
2023-03-06T17:21:52.131Z,3.30
2023-03-06T17:24:18.915Z,3.30
2023-03-06T17:26:46.909Z,3.20
2023-03-06T17:29:13.939Z,3.20
2023-03-06T17:31:41.009Z,3.20
2023-03-06T17:34:12.590Z,3.20
2023-03-06T17:36:41.797Z,3.10
2023-03-06T17:39:08.454Z,3.20
2023-03-06T17:41:35.552Z,3.10
2023-03-06T17:44:02.513Z,3.10
2023-03-06T17:46:29.469Z,3.10
2023-03-06T17:49:00.855Z,3.00
2023-03-06T17:51:29.992Z,3.00
2023-03-06T17:53:57.417Z,3.00
2023-03-06T17:56:24.237Z,3.00
2023-03-06T17:58:51.006Z,2.90
2023-03-06T18:01:19.241Z,2.90
2023-03-06T18:03:47.287Z,2.90
2023-03-06T18:06:14.741Z,2.80
2023-03-06T18:08:41.560Z,2.80
2023-03-06T18:11:09.679Z,2.80
2023-03-06T18:13:37.897Z,2.80
2023-03-06T18:16:05.322Z,2.70
2023-03-06T18:18:34.842Z,2.70
2023-03-06T18:21:09.142Z,2.70
2023-03-06T18:23:36.460Z,2.70
2023-03-06T18:26:11.726Z,2.70
2023-03-06T18:28:42.498Z,2.60
2023-03-06T18:31:16.194Z,2.60
2023-03-06T18:33:47.580Z,2.60
2023-03-06T18:36:14.342Z,2.60
2023-03-06T18:38:43.799Z,2.50
2023-03-06T18:41:10.915Z,2.50
2023-03-06T18:43:38.532Z,2.40
2023-03-06T18:46:05.719Z,2.40
2023-03-06T18:48:32.761Z,2.50
2023-03-06T18:51:06.858Z,2.40
2023-03-06T18:53:33.738Z,2.40
2023-03-06T18:56:00.795Z,2.40
2023-03-06T18:58:30.133Z,2.40
2023-03-06T19:00:59.268Z,2.30
2023-03-06T19:03:28.555Z,2.30
2023-03-06T19:05:59.142Z,2.30
2023-03-06T19:08:28.495Z,2.30
2023-03-06T19:10:56.348Z,2.30
2023-03-06T19:13:23.079Z,2.30
2023-03-06T19:15:50.449Z,2.20
2023-03-06T19:18:17.697Z,2.20
2023-03-06T19:20:44.822Z,2.20
2023-03-06T19:23:11.588Z,2.20
2023-03-06T19:25:38.353Z,2.20
2023-03-06T19:28:05.216Z,2.20
2023-03-06T19:30:34.331Z,2.20
2023-03-06T19:33:01.078Z,2.10
2023-03-06T19:35:34.811Z,2.20
2023-03-06T19:38:04.113Z,2.20
2023-03-06T19:40:30.857Z,2.10
2023-03-06T19:42:57.768Z,2.10
2023-03-06T19:45:24.490Z,2.20
2023-03-06T19:47:53.700Z,2.10
2023-03-06T19:50:20.518Z,2.10
2023-03-06T19:52:47.266Z,2.10
2023-03-06T19:55:14.048Z,2.10
2023-03-06T19:57:41.021Z,2.10
2023-03-06T20:00:10.812Z,2.10
2023-03-06T20:02:40.427Z,2.00
2023-03-06T20:05:09.308Z,2.00
2023-03-06T20:07:36.430Z,2.00
2023-03-06T20:10:03.629Z,2.00
2023-03-06T20:12:30.756Z,2.00
2023-03-06T20:14:57.825Z,2.00
2023-03-06T20:17:24.599Z,2.00
2023-03-06T20:19:51.475Z,1.90
2023-03-06T20:22:20.809Z,1.90
2023-03-06T20:24:50.138Z,1.90
2023-03-06T20:27:19.654Z,1.90
2023-03-06T20:29:46.876Z,1.90
2023-03-06T20:32:13.858Z,1.90
2023-03-06T20:34:40.755Z,1.90
2023-03-06T20:37:10.578Z,1.90
2023-03-06T20:39:37.737Z,1.90
2023-03-06T20:42:05.140Z,1.80
2023-03-06T20:44:34.199Z,1.80
2023-03-06T20:47:01.216Z,1.80
2023-03-06T20:49:28.494Z,1.80
2023-03-06T20:51:56.045Z,1.80
2023-03-06T20:54:22.996Z,1.80
2023-03-06T20:56:50.331Z,1.80
2023-03-06T20:59:18.431Z,1.80
2023-03-06T21:01:48.247Z,1.80
2023-03-06T21:04:17.530Z,1.70
2023-03-06T21:06:46.752Z,1.70
2023-03-06T21:09:15.785Z,1.70
2023-03-06T21:11:45.197Z,1.70
2023-03-06T21:14:14.224Z,1.70
2023-03-06T21:16:41.496Z,1.70
2023-03-06T21:19:10.763Z,1.70
2023-03-06T21:21:40.959Z,1.70
2023-03-06T21:24:08.329Z,1.70
2023-03-06T21:26:38.634Z,1.70
2023-03-06T21:29:06.209Z,1.60
2023-03-06T21:31:33.534Z,1.60
2023-03-06T21:34:01.275Z,1.60
2023-03-06T21:36:29.544Z,1.60
2023-03-06T21:38:56.612Z,1.60
2023-03-06T21:41:25.101Z,1.60
2023-03-06T21:43:56.458Z,1.70
2023-03-06T21:46:26.470Z,1.60
2023-03-06T21:48:56.319Z,1.60
2023-03-06T21:51:26.685Z,1.50
2023-03-06T21:53:54.243Z,1.50
2023-03-06T21:56:24.414Z,1.50
2023-03-06T21:58:51.367Z,1.50
2023-03-06T22:01:21.115Z,1.50
2023-03-06T22:03:51.055Z,1.50
2023-03-06T22:06:21.621Z,1.50
2023-03-06T22:08:48.580Z,1.50
2023-03-06T22:11:16.606Z,1.50
2023-03-06T22:13:43.847Z,1.40
2023-03-06T22:16:11.424Z,1.40
2023-03-06T22:18:38.622Z,1.40
2023-03-06T22:21:09.454Z,1.40
2023-03-06T22:23:38.590Z,1.30
2023-03-06T22:26:06.465Z,1.40
2023-03-06T22:28:33.595Z,1.30
2023-03-06T22:31:10.772Z,1.30
2023-03-06T22:33:37.731Z,1.30
2023-03-06T22:36:08.510Z,1.20
2023-03-06T22:38:36.006Z,1.20
2023-03-06T22:41:03.252Z,1.20
2023-03-06T22:43:30.134Z,1.20
2023-03-06T22:46:01.082Z,1.20
2023-03-06T22:48:27.892Z,1.20
2023-03-06T22:50:54.736Z,1.30
2023-03-06T22:53:24.013Z,1.30
2023-03-06T22:55:50.792Z,1.30
2023-03-06T22:58:17.489Z,1.20
2023-03-06T23:00:46.588Z,1.20
2023-03-06T23:03:13.302Z,1.20
2023-03-06T23:05:40.775Z,1.20
2023-03-06T23:08:07.522Z,1.20
2023-03-06T23:10:38.275Z,1.20
2023-03-06T23:13:23.434Z,1.20
2023-03-06T23:16:09.208Z,1.30
2023-03-06T23:18:54.507Z,1.20
2023-03-06T23:21:39.801Z,1.30
2023-03-06T23:24:25.287Z,1.30
2023-03-06T23:26:52.119Z,1.30
2023-03-06T23:29:21.312Z,1.30
2023-03-06T23:31:48.024Z,1.30
2023-03-06T23:34:14.721Z,1.30
2023-03-06T23:36:41.719Z,1.30
2023-03-06T23:39:08.917Z,1.30
2023-03-06T23:41:35.958Z,1.30
2023-03-06T23:44:05.171Z,1.20
2023-03-06T23:46:32.303Z,1.20
2023-03-06T23:48:59.058Z,1.20
2023-03-06T23:51:28.347Z,1.30
2023-03-06T23:53:56.453Z,1.20
2023-03-06T23:56:26.268Z,1.20
2023-03-06T23:58:53.294Z,1.20
